sensor_id;sensor_type;location;lat;lon;timestamp;pressure;altitude;pressure_sealevel;temperature;humidity
7662;BME280;30314;48.184;11.510;2022-10-31T00:01:32;96372.25;;;8.70;100.00
7662;BME280;30314;48.184;11.510;2022-10-31T00:04:00;96386.72;;;8.73;100.00
7662;BME280;30314;48.184;11.510;2022-10-31T00:06:28;96395.69;;;8.82;100.00
7662;BME280;30314;48.184;11.510;2022-10-31T00:09:00;96394.13;;;8.81;100.00
7662;BME280;30314;48.184;11.510;2022-10-31T00:11:28;96391.50;;;8.76;100.00
7662;BME280;30314;48.184;11.510;2022-10-31T00:13:57;96399.66;;;8.74;100.00
7662;BME280;30314;48.184;11.510;2022-10-31T00:16:25;96396.22;;;8.95;100.00
7662;BME280;30314;48.184;11.510;2022-10-31T00:18:54;96388.03;;;8.96;100.00
7662;BME280;30314;48.184;11.510;2022-10-31T00:21:23;96393.59;;;8.90;100.00
7662;BME280;30314;48.184;11.510;2022-10-31T00:23:51;96396.22;;;8.84;100.00
7662;BME280;30314;48.184;11.510;2022-10-31T00:26:21;96336.38;;;8.43;100.00
7662;BME280;30314;48.184;11.510;2022-10-31T00:28:49;96397.03;;;8.85;100.00
7662;BME280;30314;48.184;11.510;2022-10-31T00:31:17;96386.97;;;8.82;100.00
7662;BME280;30314;48.184;11.510;2022-10-31T00:33:45;96383.56;;;8.81;100.00
7662;BME280;30314;48.184;11.510;2022-10-31T00:36:18;96391.22;;;8.83;100.00
7662;BME280;30314;48.184;11.510;2022-10-31T00:38:47;96385.94;;;8.88;100.00
7662;BME280;30314;48.184;11.510;2022-10-31T00:41:16;96383.81;;;8.90;100.00
7662;BME280;30314;48.184;11.510;2022-10-31T00:43:46;96390.94;;;8.84;100.00
7662;BME280;30314;48.184;11.510;2022-10-31T00:46:14;96342.41;;;8.49;100.00
7662;BME280;30314;48.184;11.510;2022-10-31T00:48:42;96369.06;;;8.68;100.00
7662;BME280;30314;48.184;11.510;2022-10-31T00:51:10;96391.97;;;8.88;100.00
7662;BME280;30314;48.184;11.510;2022-10-31T00:53:40;96390.41;;;8.82;100.00
7662;BME280;30314;48.184;11.510;2022-10-31T00:56:07;96371.19;;;8.66;100.00
7662;BME280;30314;48.184;11.510;2022-10-31T00:58:35;96389.63;;;8.77;100.00
7662;BME280;30314;48.184;11.510;2022-10-31T01:01:04;96395.16;;;8.75;100.00
7662;BME280;30314;48.184;11.510;2022-10-31T01:03:34;96388.03;;;8.81;100.00
7662;BME280;30314;48.184;11.510;2022-10-31T01:06:04;96390.41;;;8.82;100.00
7662;BME280;30314;48.184;11.510;2022-10-31T01:08:32;96364.88;;;8.57;100.00
7662;BME280;30314;48.184;11.510;2022-10-31T01:11:03;96371.47;;;8.54;100.00
7662;BME280;30314;48.184;11.510;2022-10-31T01:13:32;96371.69;;;8.48;100.00
7662;BME280;30314;48.184;11.510;2022-10-31T01:16:02;96392.78;;;8.53;100.00
7662;BME280;30314;48.184;11.510;2022-10-31T01:18:33;96362.72;;;8.33;100.00
7662;BME280;30314;48.184;11.510;2022-10-31T01:21:03;96267.34;;;7.79;100.00
7662;BME280;30314;48.184;11.510;2022-10-31T01:23:32;96374.63;;;8.56;100.00
7662;BME280;30314;48.184;11.510;2022-10-31T01:26:02;96387.50;;;8.48;100.00
7662;BME280;30314;48.184;11.510;2022-10-31T01:28:31;96391.69;;;8.38;100.00
7662;BME280;30314;48.184;11.510;2022-10-31T01:31:05;96389.34;;;8.37;100.00
7662;BME280;30314;48.184;11.510;2022-10-31T01:33:36;96390.13;;;8.32;100.00
7662;BME280;30314;48.184;11.510;2022-10-31T01:36:13;96394.31;;;8.28;100.00
7662;BME280;30314;48.184;11.510;2022-10-31T01:38:41;96371.13;;;8.14;100.00
7662;BME280;30314;48.184;11.510;2022-10-31T01:41:10;96410.66;;;8.25;100.00
7662;BME280;30314;48.184;11.510;2022-10-31T01:43:43;96363.22;;;8.14;100.00
7662;BME280;30314;48.184;11.510;2022-10-31T01:46:12;96350.84;;;8.04;100.00
7662;BME280;30314;48.184;11.510;2022-10-31T01:48:42;96387.22;;;8.23;100.00
7662;BME280;30314;48.184;11.510;2022-10-31T01:51:11;96340.81;;;7.86;100.00
7662;BME280;30314;48.184;11.510;2022-10-31T01:53:42;96383.50;;;8.14;100.00
7662;BME280;30314;48.184;11.510;2022-10-31T01:56:12;96365.56;;;7.95;100.00
7662;BME280;30314;48.184;11.510;2022-10-31T01:58:41;96379.81;;;8.04;100.00
7662;BME280;30314;48.184;11.510;2022-10-31T02:01:09;96389.81;;;7.97;100.00
7662;BME280;30314;48.184;11.510;2022-10-31T02:03:38;96382.97;;;7.96;100.00
7662;BME280;30314;48.184;11.510;2022-10-31T02:06:12;96364.50;;;7.86;100.00
7662;BME280;30314;48.184;11.510;2022-10-31T02:08:42;96348.91;;;7.69;100.00
7662;BME280;30314;48.184;11.510;2022-10-31T02:11:11;96376.63;;;7.87;100.00
7662;BME280;30314;48.184;11.510;2022-10-31T02:13:40;96370.03;;;7.89;100.00
7662;BME280;30314;48.184;11.510;2022-10-31T02:16:09;96366.63;;;7.99;100.00
7662;BME280;30314;48.184;11.510;2022-10-31T02:18:37;96379.56;;;8.06;100.00
7662;BME280;30314;48.184;11.510;2022-10-31T02:21:13;96386.38;;;8.02;100.00
7662;BME280;30314;48.184;11.510;2022-10-31T02:24:00;96391.63;;;8.02;100.00
7662;BME280;30314;48.184;11.510;2022-10-31T02:26:46;96377.16;;;7.99;100.00
7662;BME280;30314;48.184;11.510;2022-10-31T02:32:20;96383.75;;;7.97;100.00
7662;BME280;30314;48.184;11.510;2022-10-31T02:34:58;96378.75;;;8.00;100.00
7662;BME280;30314;48.184;11.510;2022-10-31T02:37:37;96312.28;;;7.52;100.00
7662;BME280;30314;48.184;11.510;2022-10-31T02:40:13;96378.72;;;7.90;100.00
7662;BME280;30314;48.184;11.510;2022-10-31T02:43:11;96326.50;;;7.56;100.00
7662;BME280;30314;48.184;11.510;2022-10-31T02:45:48;96344.44;;;7.64;100.00
7662;BME280;30314;48.184;11.510;2022-10-31T02:48:25;96371.84;;;7.73;100.00
7662;BME280;30314;48.184;11.510;2022-10-31T02:50:56;96384.50;;;7.87;100.00
7662;BME280;30314;48.184;11.510;2022-10-31T02:53:25;96388.69;;;7.83;100.00
7662;BME280;30314;48.184;11.510;2022-10-31T02:56:01;96386.63;;;7.85;100.00
7662;BME280;30314;48.184;11.510;2022-10-31T02:58:31;96376.81;;;7.70;100.00
7662;BME280;30314;48.184;11.510;2022-10-31T03:01:21;96384.19;;;7.73;100.00
7662;BME280;30314;48.184;11.510;2022-10-31T03:04:02;96360.72;;;7.56;100.00
7662;BME280;30314;48.184;11.510;2022-10-31T03:06:38;96389.97;;;7.70;100.00
7662;BME280;30314;48.184;11.510;2022-10-31T03:09:13;96355.97;;;7.53;100.00
7662;BME280;30314;48.184;11.510;2022-10-31T03:11:52;96380.78;;;7.72;100.00
7662;BME280;30314;48.184;11.510;2022-10-31T03:14:26;96385.00;;;7.73;100.00
7662;BME280;30314;48.184;11.510;2022-10-31T03:17:00;96372.84;;;7.62;100.00
7662;BME280;30314;48.184;11.510;2022-10-31T03:19:34;96367.81;;;7.55;100.00
7662;BME280;30314;48.184;11.510;2022-10-31T03:22:10;96387.06;;;7.66;100.00
7662;BME280;30314;48.184;11.510;2022-10-31T03:24:43;96373.38;;;7.64;100.00
7662;BME280;30314;48.184;11.510;2022-10-31T03:27:15;96385.19;;;7.61;100.00
7662;BME280;30314;48.184;11.510;2022-10-31T03:29:47;96380.50;;;7.69;100.00
7662;BME280;30314;48.184;11.510;2022-10-31T03:32:19;96387.34;;;7.70;100.00
7662;BME280;30314;48.184;11.510;2022-10-31T03:34:54;96367.53;;;7.52;100.00
7662;BME280;30314;48.184;11.510;2022-10-31T03:37:26;96381.78;;;7.61;100.00
7662;BME280;30314;48.184;11.510;2022-10-31T03:39:57;96361.19;;;7.42;100.00
7662;BME280;30314;48.184;11.510;2022-10-31T03:42:29;96361.69;;;7.39;100.00
7662;BME280;30314;48.184;11.510;2022-10-31T03:45:01;96363.31;;;7.45;100.00
7662;BME280;30314;48.184;11.510;2022-10-31T03:47:31;96383.84;;;7.54;100.00
7662;BME280;30314;48.184;11.510;2022-10-31T03:50:01;96378.06;;;7.52;100.00
7662;BME280;30314;48.184;11.510;2022-10-31T03:52:35;96380.94;;;7.45;100.00
7662;BME280;30314;48.184;11.510;2022-10-31T03:55:09;96388.06;;;7.44;100.00
7662;BME280;30314;48.184;11.510;2022-10-31T03:57:40;96390.41;;;7.41;100.00
7662;BME280;30314;48.184;11.510;2022-10-31T04:00:10;96393.56;;;7.48;100.00
7662;BME280;30314;48.184;11.510;2022-10-31T04:02:49;96387.75;;;7.41;100.00
7662;BME280;30314;48.184;11.510;2022-10-31T04:05:20;96393.78;;;7.36;100.00
7662;BME280;30314;48.184;11.510;2022-10-31T04:07:52;96389.00;;;7.23;100.00
7662;BME280;30314;48.184;11.510;2022-10-31T04:10:21;96404.78;;;7.28;100.00
7662;BME280;30314;48.184;11.510;2022-10-31T04:13:02;96392.16;;;7.25;100.00
7662;BME280;30314;48.184;11.510;2022-10-31T04:15:38;96387.13;;;7.23;100.00
7662;BME280;30314;48.184;11.510;2022-10-31T04:18:08;96375.78;;;7.12;100.00
7662;BME280;30314;48.184;11.510;2022-10-31T04:20:40;96346.41;;;6.83;100.00
7662;BME280;30314;48.184;11.510;2022-10-31T04:23:17;96381.09;;;7.17;100.00
7662;BME280;30314;48.184;11.510;2022-10-31T04:25:47;96383.94;;;7.11;100.00
7662;BME280;30314;48.184;11.510;2022-10-31T04:28:16;96391.84;;;7.16;100.00
7662;BME280;30314;48.184;11.510;2022-10-31T04:30:44;96337.28;;;6.90;100.00
7662;BME280;30314;48.184;11.510;2022-10-31T04:33:12;96357.00;;;6.93;100.00
7662;BME280;30314;48.184;11.510;2022-10-31T04:35:44;96385.84;;;7.26;100.00
7662;BME280;30314;48.184;11.510;2022-10-31T04:38:11;96389.53;;;7.25;100.00
7662;BME280;30314;48.184;11.510;2022-10-31T04:40:40;96368.88;;;7.01;100.00
7662;BME280;30314;48.184;11.510;2022-10-31T04:43:28;96375.78;;;7.12;100.00
7662;BME280;30314;48.184;11.510;2022-10-31T04:45:58;96339.03;;;6.74;100.00
7662;BME280;30314;48.184;11.510;2022-10-31T04:48:27;96395.75;;;7.13;100.00
7662;BME280;30314;48.184;11.510;2022-10-31T04:50:59;96389.66;;;7.02;100.00
7662;BME280;30314;48.184;11.510;2022-10-31T04:53:28;96402.22;;;6.95;100.00
7662;BME280;30314;48.184;11.510;2022-10-31T04:56:19;96397.19;;;6.88;100.00
7662;BME280;30314;48.184;11.510;2022-10-31T04:58:52;96396.69;;;6.91;100.00
7662;BME280;30314;48.184;11.510;2022-10-31T05:01:21;96374.53;;;6.77;100.00
7662;BME280;30314;48.184;11.510;2022-10-31T05:03:49;96370.25;;;6.71;100.00
7662;BME280;30314;48.184;11.510;2022-10-31T05:06:18;96401.44;;;6.95;100.00
7662;BME280;30314;48.184;11.510;2022-10-31T05:08:46;96385.84;;;6.83;100.00
7662;BME280;30314;48.184;11.510;2022-10-31T05:11:14;96396.41;;;6.88;100.00
7662;BME280;30314;48.184;11.510;2022-10-31T05:13:43;96339.91;;;6.53;100.00
7662;BME280;30314;48.184;11.510;2022-10-31T05:16:11;96356.50;;;6.58;100.00
7662;BME280;30314;48.184;11.510;2022-10-31T05:19:01;96390.56;;;6.81;100.00
7662;BME280;30314;48.184;11.510;2022-10-31T05:21:57;96388.97;;;6.80;100.00
7662;BME280;30314;48.184;11.510;2022-10-31T05:24:24;96370.19;;;6.60;100.00
7662;BME280;30314;48.184;11.510;2022-10-31T05:26:52;96382.66;;;6.75;100.00
7662;BME280;30314;48.184;11.510;2022-10-31T05:29:20;96341.47;;;6.48;100.00
7662;BME280;30314;48.184;11.510;2022-10-31T05:31:47;96382.41;;;6.77;100.00
7662;BME280;30314;48.184;11.510;2022-10-31T05:34:38;96345.47;;;6.56;100.00
7662;BME280;30314;48.184;11.510;2022-10-31T05:37:25;96338.63;;;6.55;100.00
7662;BME280;30314;48.184;11.510;2022-10-31T05:39:53;96365.53;;;6.68;100.00
7662;BME280;30314;48.184;11.510;2022-10-31T05:42:21;96365.53;;;6.68;100.00
7662;BME280;30314;48.184;11.510;2022-10-31T05:44:49;96312.25;;;6.40;100.00
7662;BME280;30314;48.184;11.510;2022-10-31T05:47:24;96337.00;;;6.49;100.00
7662;BME280;30314;48.184;11.510;2022-10-31T05:49:54;96242.69;;;6.10;100.00
7662;BME280;30314;48.184;11.510;2022-10-31T05:52:57;96342.66;;;6.68;100.00
7662;BME280;30314;48.184;11.510;2022-10-31T05:55:33;96359.06;;;6.86;100.00
7662;BME280;30314;48.184;11.510;2022-10-31T05:58:10;96370.66;;;6.90;100.00
7662;BME280;30314;48.184;11.510;2022-10-31T06:00:41;96356.34;;;6.70;100.00
7662;BME280;30314;48.184;11.510;2022-10-31T06:03:10;96361.81;;;6.63;100.00
7662;BME280;30314;48.184;11.510;2022-10-31T06:05:46;96380.03;;;6.75;100.00
7662;BME280;30314;48.184;11.510;2022-10-31T06:08:23;96373.44;;;6.73;100.00
7662;BME280;30314;48.184;11.510;2022-10-31T06:10:53;96372.66;;;6.72;100.00
7662;BME280;30314;48.184;11.510;2022-10-31T06:13:41;96380.03;;;6.75;100.00
7662;BME280;30314;48.184;11.510;2022-10-31T06:16:16;96375.22;;;6.67;100.00
7662;BME280;30314;48.184;11.510;2022-10-31T06:18:45;96368.47;;;6.76;100.00
7662;BME280;30314;48.184;11.510;2022-10-31T06:21:13;96388.19;;;6.79;100.00
7662;BME280;30314;48.184;11.510;2022-10-31T06:23:46;96382.13;;;6.79;100.00
7662;BME280;30314;48.184;11.510;2022-10-31T06:26:25;96388.44;;;6.77;100.00
7662;BME280;30314;48.184;11.510;2022-10-31T06:28:53;96386.53;;;6.68;100.00
7662;BME280;30314;48.184;11.510;2022-10-31T06:31:43;96369.44;;;6.65;100.00
7662;BME280;30314;48.184;11.510;2022-10-31T06:34:11;96387.16;;;6.80;100.00
7662;BME280;30314;48.184;11.510;2022-10-31T06:36:40;96373.13;;;6.69;100.00
7662;BME280;30314;48.184;11.510;2022-10-31T06:39:09;96390.63;;;6.86;100.00
7662;BME280;30314;48.184;11.510;2022-10-31T06:41:37;96382.97;;;6.84;100.00
7662;BME280;30314;48.184;11.510;2022-10-31T06:44:06;96384.03;;;6.88;100.00
7662;BME280;30314;48.184;11.510;2022-10-31T06:46:53;96383.56;;;6.91;100.00
7662;BME280;30314;48.184;11.510;2022-10-31T06:49:44;96380.72;;;6.98;100.00
7662;BME280;30314;48.184;11.510;2022-10-31T06:52:15;96368.84;;;6.96;100.00
7662;BME280;30314;48.184;11.510;2022-10-31T06:54:44;96381.78;;;7.08;100.00
7662;BME280;30314;48.184;11.510;2022-10-31T06:57:12;96381.00;;;7.07;100.00
7662;BME280;30314;48.184;11.510;2022-10-31T06:59:40;96380.53;;;7.15;100.00
7662;BME280;30314;48.184;11.510;2022-10-31T07:02:20;96387.13;;;7.18;100.00
7662;BME280;30314;48.184;11.510;2022-10-31T07:04:49;96385.81;;;7.21;100.00
7662;BME280;30314;48.184;11.510;2022-10-31T07:07:17;96388.75;;;7.24;100.00
7662;BME280;30314;48.184;11.510;2022-10-31T07:09:48;96394.56;;;7.31;100.00
7662;BME280;30314;48.184;11.510;2022-10-31T07:12:20;96386.94;;;7.35;100.00
7662;BME280;30314;48.184;11.510;2022-10-31T07:14:55;96304.38;;;6.83;100.00
7662;BME280;30314;48.184;11.510;2022-10-31T07:17:23;96390.41;;;7.46;100.00
7662;BME280;30314;48.184;11.510;2022-10-31T07:19:57;96388.63;;;7.57;100.00
7662;BME280;30314;48.184;11.510;2022-10-31T07:22:32;96389.16;;;7.59;100.00
7662;BME280;30314;48.184;11.510;2022-10-31T07:25:04;96371.75;;;7.53;100.00
7662;BME280;30314;48.184;11.510;2022-10-31T07:27:50;96391.28;;;7.67;100.00
7662;BME280;30314;48.184;11.510;2022-10-31T07:30:19;96395.53;;;7.73;100.00
7662;BME280;30314;48.184;11.510;2022-10-31T07:32:50;96390.50;;;7.72;100.00
7662;BME280;30314;48.184;11.510;2022-10-31T07:35:20;96384.00;;;7.95;100.00
7662;BME280;30314;48.184;11.510;2022-10-31T07:37:55;96393.50;;;8.07;100.00
7662;BME280;30314;48.184;11.510;2022-10-31T07:40:25;96388.25;;;8.12;100.00
7662;BME280;30314;48.184;11.510;2022-10-31T07:42:53;96385.88;;;8.26;100.00
7662;BME280;30314;48.184;11.510;2022-10-31T07:45:43;96295.53;;;7.84;100.00
7662;BME280;30314;48.184;11.510;2022-10-31T07:48:29;96385.94;;;8.52;100.00
7662;BME280;30314;48.184;11.510;2022-10-31T07:51:35;96386.47;;;8.64;100.00
7662;BME280;30314;48.184;11.510;2022-10-31T07:54:41;96383.03;;;8.79;100.00
7662;BME280;30314;48.184;11.510;2022-10-31T07:57:10;96382.25;;;8.89;100.00
7662;BME280;30314;48.184;11.510;2022-10-31T07:59:38;96379.31;;;9.01;100.00
7662;BME280;30314;48.184;11.510;2022-10-31T08:02:07;96365.31;;;9.06;100.00
7662;BME280;30314;48.184;11.510;2022-10-31T08:04:58;96336.53;;;9.20;100.00
7662;BME280;30314;48.184;11.510;2022-10-31T08:07:28;96375.75;;;9.47;100.00
7662;BME280;30314;48.184;11.510;2022-10-31T08:10:03;96346.47;;;9.49;100.00
7662;BME280;30314;48.184;11.510;2022-10-31T08:12:32;96361.66;;;9.72;100.00
7662;BME280;30314;48.184;11.510;2022-10-31T08:15:00;96365.28;;;9.87;100.00
7662;BME280;30314;48.184;11.510;2022-10-31T08:17:28;96367.88;;;9.97;100.00
7662;BME280;30314;48.184;11.510;2022-10-31T08:19:58;96340.97;;;9.95;100.00
7662;BME280;30314;48.184;11.510;2022-10-31T08:22:31;96359.84;;;10.13;100.00
7662;BME280;30314;48.184;11.510;2022-10-31T08:25:00;96352.94;;;10.22;100.00
7662;BME280;30314;48.184;11.510;2022-10-31T08:27:28;96279.22;;;9.81;100.00
7662;BME280;30314;48.184;11.510;2022-10-31T08:30:00;96353.28;;;10.50;100.00
7662;BME280;30314;48.184;11.510;2022-10-31T08:32:28;96349.69;;;10.65;100.00
7662;BME280;30314;48.184;11.510;2022-10-31T08:35:10;96357.28;;;10.77;100.00
7662;BME280;30314;48.184;11.510;2022-10-31T08:37:57;96348.06;;;10.99;100.00
7662;BME280;30314;48.184;11.510;2022-10-31T08:40:27;96345.97;;;11.20;100.00
7662;BME280;30314;48.184;11.510;2022-10-31T08:42:56;96332.63;;;11.31;100.00
7662;BME280;30314;48.184;11.510;2022-10-31T08:45:27;96336.78;;;11.61;100.00
7662;BME280;30314;48.184;11.510;2022-10-31T08:47:57;96338.72;;;11.75;100.00
7662;BME280;30314;48.184;11.510;2022-10-31T08:50:27;96325.13;;;11.81;100.00
7662;BME280;30314;48.184;11.510;2022-10-31T08:52:59;96328.84;;;11.99;100.00
7662;BME280;30314;48.184;11.510;2022-10-31T08:55:33;96322.28;;;12.16;100.00
7662;BME280;30314;48.184;11.510;2022-10-31T08:58:05;96306.31;;;12.21;100.00
7662;BME280;30314;48.184;11.510;2022-10-31T09:00:41;96326.34;;;12.61;100.00
7662;BME280;30314;48.184;11.510;2022-10-31T09:03:20;96310.13;;;12.62;100.00
7662;BME280;30314;48.184;11.510;2022-10-31T09:05:48;96307.91;;;12.69;100.00
7662;BME280;30314;48.184;11.510;2022-10-31T09:08:16;96321.09;;;12.89;100.00
7662;BME280;30314;48.184;11.510;2022-10-31T09:10:46;96314.63;;;13.09;100.00
7662;BME280;30314;48.184;11.510;2022-10-31T09:13:20;96309.22;;;13.28;100.00
7662;BME280;30314;48.184;11.510;2022-10-31T09:16:29;96311.47;;;13.49;100.00
7662;BME280;30314;48.184;11.510;2022-10-31T09:18:57;96312.22;;;13.63;100.00
7662;BME280;30314;48.184;11.510;2022-10-31T09:21:26;96313.59;;;13.75;100.00
7662;BME280;30314;48.184;11.510;2022-10-31T09:23:57;96292.59;;;13.87;100.00
7662;BME280;30314;48.184;11.510;2022-10-31T09:26:25;96301.78;;;14.04;100.00
7662;BME280;30314;48.184;11.510;2022-10-31T09:29:02;96304.22;;;14.37;100.00
7662;BME280;30314;48.184;11.510;2022-10-31T09:31:32;96297.88;;;14.56;100.00
7662;BME280;30314;48.184;11.510;2022-10-31T09:34:04;96296.97;;;14.60;100.00
7662;BME280;30314;48.184;11.510;2022-10-31T09:36:35;96293.84;;;14.81;100.00
7662;BME280;30314;48.184;11.510;2022-10-31T09:39:05;96286.75;;;14.76;100.00
7662;BME280;30314;48.184;11.510;2022-10-31T09:41:57;96295.41;;;14.82;100.00
7662;BME280;30314;48.184;11.510;2022-10-31T09:44:38;96293.19;;;14.75;100.00
7662;BME280;30314;48.184;11.510;2022-10-31T09:47:19;96279.00;;;14.66;100.00
7662;BME280;30314;48.184;11.510;2022-10-31T09:50:15;96283.47;;;14.79;100.00
7662;BME280;30314;48.184;11.510;2022-10-31T09:52:53;96242.34;;;14.54;100.00
7662;BME280;30314;48.184;11.510;2022-10-31T09:55:27;96279.72;;;14.80;100.00
7662;BME280;30314;48.184;11.510;2022-10-31T09:57:59;96264.06;;;14.79;100.00
7662;BME280;30314;48.184;11.510;2022-10-31T10:00:28;96294.34;;;14.92;100.00
7662;BME280;30314;48.184;11.510;2022-10-31T10:03:10;96227.84;;;14.69;100.00
7662;BME280;30314;48.184;11.510;2022-10-31T10:05:43;96282.25;;;15.26;100.00
7662;BME280;30314;48.184;11.510;2022-10-31T10:08:26;96164.28;;;14.68;100.00
7662;BME280;30314;48.184;11.510;2022-10-31T10:11:01;96275.84;;;15.45;100.00
7662;BME280;30314;48.184;11.510;2022-10-31T10:14:14;96279.44;;;15.58;100.00
7662;BME280;30314;48.184;11.510;2022-10-31T10:17:02;96265.53;;;15.70;100.00
7662;BME280;30314;48.184;11.510;2022-10-31T10:19:48;96258.78;;;15.72;100.00
7662;BME280;30314;48.184;11.510;2022-10-31T10:22:30;96269.59;;;15.76;100.00
7662;BME280;30314;48.184;11.510;2022-10-31T10:25:16;96250.16;;;15.75;100.00
7662;BME280;30314;48.184;11.510;2022-10-31T10:27:53;96264.91;;;15.90;100.00
7662;BME280;30314;48.184;11.510;2022-10-31T10:30:32;96236.69;;;15.63;100.00
7662;BME280;30314;48.184;11.510;2022-10-31T10:33:04;96269.91;;;15.83;100.00
7662;BME280;30314;48.184;11.510;2022-10-31T10:35:40;96255.16;;;15.77;100.00
7662;BME280;30314;48.184;11.510;2022-10-31T10:38:15;96258.97;;;15.94;100.00
7662;BME280;30314;48.184;11.510;2022-10-31T10:40:45;96251.13;;;16.06;100.00
7662;BME280;30314;48.184;11.510;2022-10-31T10:43:20;96242.16;;;16.02;100.00
7662;BME280;30314;48.184;11.510;2022-10-31T10:45:54;96245.00;;;16.05;100.00
7662;BME280;30314;48.184;11.510;2022-10-31T10:48:44;96252.53;;;16.03;100.00
7662;BME280;30314;48.184;11.510;2022-10-31T10:51:21;96227.59;;;15.90;100.00
7662;BME280;30314;48.184;11.510;2022-10-31T10:57:06;96202.78;;;15.72;98.98
7662;BME280;30314;48.184;11.510;2022-10-31T10:59:39;96237.94;;;16.01;100.00
7662;BME280;30314;48.184;11.510;2022-10-31T11:02:16;96209.25;;;15.80;100.00
7662;BME280;30314;48.184;11.510;2022-10-31T11:04:47;96235.88;;;16.06;99.54
7662;BME280;30314;48.184;11.510;2022-10-31T11:07:18;96238.28;;;15.99;100.00
7662;BME280;30314;48.184;11.510;2022-10-31T11:09:46;96204.50;;;15.86;100.00
7662;BME280;30314;48.184;11.510;2022-10-31T11:12:20;96148.72;;;15.45;100.00
7662;BME280;30314;48.184;11.510;2022-10-31T11:14:51;96219.09;;;15.88;100.00
7662;BME280;30314;48.184;11.510;2022-10-31T11:17:27;96215.16;;;15.86;100.00
7662;BME280;30314;48.184;11.510;2022-10-31T11:20:04;96216.59;;;15.83;100.00
7662;BME280;30314;48.184;11.510;2022-10-31T11:22:34;96216.91;;;15.90;100.00
7662;BME280;30314;48.184;11.510;2022-10-31T11:25:19;96206.41;;;15.94;100.00
7662;BME280;30314;48.184;11.510;2022-10-31T11:27:58;96139.31;;;15.57;99.22
7662;BME280;30314;48.184;11.510;2022-10-31T11:30:27;96189.94;;;16.01;99.49
7662;BME280;30314;48.184;11.510;2022-10-31T11:32:55;96198.53;;;16.15;100.00
7662;BME280;30314;48.184;11.510;2022-10-31T11:35:25;96165.47;;;15.99;100.00
7662;BME280;30314;48.184;11.510;2022-10-31T11:38:05;96186.59;;;16.22;97.98
7662;BME280;30314;48.184;11.510;2022-10-31T11:40:32;96192.88;;;16.26;100.00
7662;BME280;30314;48.184;11.510;2022-10-31T11:43:00;96084.75;;;15.72;95.83
7662;BME280;30314;48.184;11.510;2022-10-31T11:45:31;96182.41;;;16.51;90.13
7662;BME280;30314;48.184;11.510;2022-10-31T11:48:15;96178.19;;;16.49;93.81
7662;BME280;30314;48.184;11.510;2022-10-31T11:50:48;96159.84;;;16.39;95.82
7662;BME280;30314;48.184;11.510;2022-10-31T11:53:20;96173.91;;;16.57;95.11
7662;BME280;30314;48.184;11.510;2022-10-31T11:56:00;96169.94;;;16.63;96.31
7662;BME280;30314;48.184;11.510;2022-10-31T11:58:29;96160.88;;;16.56;97.39
7662;BME280;30314;48.184;11.510;2022-10-31T12:01:23;96115.97;;;16.28;97.49
7662;BME280;30314;48.184;11.510;2022-10-31T12:04:02;96162.72;;;16.64;96.16
7662;BME280;30314;48.184;11.510;2022-10-31T12:06:35;96159.72;;;16.74;93.05
7662;BME280;30314;48.184;11.510;2022-10-31T12:09:18;96149.84;;;16.66;92.96
7662;BME280;30314;48.184;11.510;2022-10-31T12:14:57;96116.41;;;16.30;91.79
7662;BME280;30314;48.184;11.510;2022-10-31T12:17:30;96152.91;;;16.47;90.17
7662;BME280;30314;48.184;11.510;2022-10-31T12:20:12;96164.19;;;16.53;89.33
7662;BME280;30314;48.184;11.510;2022-10-31T12:22:50;96157.28;;;16.52;87.09
7662;BME280;30314;48.184;11.510;2022-10-31T12:25:31;96155.09;;;16.54;87.54
7662;BME280;30314;48.184;11.510;2022-10-31T12:28:25;96150.75;;;16.40;89.73
7662;BME280;30314;48.184;11.510;2022-10-31T12:31:05;96144.94;;;16.38;88.82
7662;BME280;30314;48.184;11.510;2022-10-31T12:33:47;96144.38;;;16.24;91.55
7662;BME280;30314;48.184;11.510;2022-10-31T12:36:32;96150.38;;;16.20;94.45
7662;BME280;30314;48.184;11.510;2022-10-31T12:39:15;96120.44;;;16.06;98.71
7662;BME280;30314;48.184;11.510;2022-10-31T12:41:51;96128.56;;;16.10;94.70
7662;BME280;30314;48.184;11.510;2022-10-31T12:44:45;96129.19;;;16.15;93.01
7662;BME280;30314;48.184;11.510;2022-10-31T12:47:30;96131.91;;;16.37;89.91
7662;BME280;30314;48.184;11.510;2022-10-31T12:50:16;96125.81;;;16.36;89.39
7662;BME280;30314;48.184;11.510;2022-10-31T12:52:54;96106.53;;;16.30;92.16
7662;BME280;30314;48.184;11.510;2022-10-31T12:55:37;96121.19;;;16.45;92.20
7662;BME280;30314;48.184;11.510;2022-10-31T12:58:14;96115.56;;;16.47;91.53
7662;BME280;30314;48.184;11.510;2022-10-31T13:00:46;96113.50;;;16.53;91.89
7662;BME280;30314;48.184;11.510;2022-10-31T13:03:23;96106.22;;;16.62;90.15
7662;BME280;30314;48.184;11.510;2022-10-31T13:05:56;96101.03;;;16.66;91.45
7662;BME280;30314;48.184;11.510;2022-10-31T13:08:29;96097.44;;;16.61;91.48
7662;BME280;30314;48.184;11.510;2022-10-31T13:11:06;96088.25;;;16.71;90.11
7662;BME280;30314;48.184;11.510;2022-10-31T13:13:40;96055.09;;;16.51;91.97
7662;BME280;30314;48.184;11.510;2022-10-31T13:16:13;96086.81;;;16.74;92.07
7662;BME280;30314;48.184;11.510;2022-10-31T13:18:44;96081.88;;;16.63;92.55
7662;BME280;30314;48.184;11.510;2022-10-31T13:21:19;96043.16;;;16.27;93.43
7662;BME280;30314;48.184;11.510;2022-10-31T13:23:49;96091.44;;;16.65;95.08
7662;BME280;30314;48.184;11.510;2022-10-31T13:26:27;96085.19;;;16.60;93.88
7662;BME280;30314;48.184;11.510;2022-10-31T13:29:08;96071.75;;;16.48;96.04
7662;BME280;30314;48.184;11.510;2022-10-31T13:31:40;96076.31;;;16.47;96.86
7662;BME280;30314;48.184;11.510;2022-10-31T13:34:16;96076.94;;;16.44;97.50
7662;BME280;30314;48.184;11.510;2022-10-31T13:36:51;96076.34;;;16.39;96.55
7662;BME280;30314;48.184;11.510;2022-10-31T13:39:30;96076.03;;;16.40;98.87
7662;BME280;30314;48.184;11.510;2022-10-31T13:42:02;96075.44;;;16.34;99.37
7662;BME280;30314;48.184;11.510;2022-10-31T13:44:35;96076.84;;;16.32;99.38